Airfield :







YOU CAN JOIN US ON...

 
LOGIN :

Register | Disclaimer

   EN    FR    IT 

 









Legend :    VFR   Marginal VFR   IFR   Intensive IFR   Very Intensive IFR
Visi :
Ceiling :
>= 8 km
>= 3000ft
5 to 8 km
1000 to 3000 ft
1500m to 5 km
500 to 1000 ft
800 to 1500m
200 to 500 ft
< 800m
< 200 ft
Symbols :   Thunderstorms  Fog  Heavy snow  Heavy precipitations  Wind > 20 kt







- Airport Elevation : 1663 ft
- IATA code : SLK


KSLK - Adirondack Regional

CURRENT METAR :
  • 161351Z AUTO VRB03KT 10SM CLR 13/06 A3014 RMK AO2 SLP209 T01280061

EXPIRED METARs :
  • 161251Z AUTO 21003KT 10SM CLR 08/07 A3014 RMK AO2 SLP212 T00780072
  • 161232Z AUTO 00000KT 10SM SCT001 07/06 A3014 RMK AO2 T00670061
  • 161224Z AUTO 00000KT 10SM BKN001 06/06 A3014 RMK AO2 T00610056
  • 161216Z AUTO 00000KT 3SM BR BKN002 06/05 A3014 RMK AO2 T00560050
  • 161205Z AUTO 00000KT 3/4SM BR VV002 04/04 A3014 RMK AO2 T00440044
  • 161151Z AUTO 00000KT 1/4SM FG VV002 03/03 A3014 RMK AO2 SLP213 T00330033 10039 20011 53007
  • 161130Z AUTO 00000KT 1/4SM FG VV002 02/02 A3013 RMK AO2 T00220017

TAF KSLK
Valid from the 16 at 12:00 until the 17 at 12:00 UTC


161138Z 1612/1712 00000KT 1/2SM FG VV002
FM161300 31006KT P6SM SKC
FM170200 00000KT P6SM FEW250
FM170700 00000KT 1/4SM FG OVC001
No reported NOTAMs for that airfield.



MET'MAP, your aeronautical weather chart ! - Copyright ORBIFLY December 2007 - Disclaimer

ORBIFLY MET'MAP TEAM :

Programming & Development : Alexandra Zaïnal
Concept & Development : Baudouin d'Aumeries
Co-Development & Prog : Marc-Olivier Méhu
Technical & hardware support : Manuel Goepfert

Contact : metmap@orbifly.com




SOURCES & CREDITS :

   NOAA